createdAt,value
2022-11-02T00:00:22.042Z,96722.09
2022-11-02T00:02:49.330Z,96719.88
2022-11-02T00:05:15.901Z,96719.06
2022-11-02T00:07:42.394Z,96723.59
2022-11-02T00:10:10.878Z,96723.91
2022-11-02T00:12:37.216Z,96729.47
2022-11-02T00:15:04.578Z,96730.06
2022-11-02T00:17:31.422Z,96730.06
2022-11-02T00:19:59.137Z,96733.81
2022-11-02T00:22:26.446Z,96727.59
2022-11-02T00:24:53.341Z,96734.22
2022-11-02T00:27:20.452Z,96735.25
2022-11-02T00:29:46.833Z,96738.59
2022-11-02T00:32:13.171Z,96741.63
2022-11-02T00:34:40.065Z,96745.28
2022-11-02T00:37:06.437Z,96746.25
2022-11-02T00:39:32.749Z,96746.81
2022-11-02T00:41:59.453Z,96748.16
2022-11-02T00:44:26.134Z,96752.63
2022-11-02T00:46:52.455Z,96761.03
2022-11-02T00:49:18.799Z,96764.50
2022-11-02T00:51:46.621Z,96753.50
2022-11-02T00:54:12.953Z,96756.63
2022-11-02T00:56:39.314Z,96756.47
2022-11-02T00:59:06.080Z,96765.22
2022-11-02T01:01:32.655Z,96761.88
2022-11-02T01:03:59.685Z,96754.69
2022-11-02T01:06:26.121Z,96766.50
2022-11-02T01:08:53.173Z,96765.50
2022-11-02T01:11:23.544Z,96759.94
2022-11-02T01:13:51.513Z,96771.09
2022-11-02T01:16:18.374Z,96767.81
2022-11-02T01:18:44.721Z,96770.59
2022-11-02T01:21:12.019Z,96771.75
2022-11-02T01:23:38.615Z,96766.66
2022-11-02T01:26:06.641Z,96763.84
2022-11-02T01:28:33.636Z,96764.50
2022-11-02T01:31:00.189Z,96769.78
2022-11-02T01:33:27.395Z,96764.34
2022-11-02T01:35:55.062Z,96773.22
2022-11-02T01:38:21.686Z,96778.00
2022-11-02T01:40:48.087Z,96774.34
2022-11-02T01:43:27.872Z,96774.38
2022-11-02T01:46:01.726Z,96774.03
2022-11-02T01:48:48.035Z,96779.63
2022-11-02T01:51:26.822Z,96784.53
2022-11-02T01:54:00.842Z,96784.53
2022-11-02T01:56:31.187Z,96784.34
2022-11-02T01:59:02.984Z,96782.84
2022-11-02T02:01:30.952Z,96786.75
2022-11-02T02:03:58.069Z,96782.97
2022-11-02T02:06:27.730Z,96781.47
2022-11-02T02:08:57.074Z,96780.47
2022-11-02T02:11:28.079Z,96776.34
2022-11-02T02:13:58.189Z,96776.81
2022-11-02T02:16:39.543Z,96778.25
2022-11-02T02:19:19.678Z,96776.25
2022-11-02T02:22:27.457Z,96771.75
2022-11-02T02:25:30.975Z,96771.19
2022-11-02T02:28:37.322Z,96775.13
2022-11-02T02:31:16.190Z,96774.72
2022-11-02T02:33:49.378Z,96776.00
2022-11-02T02:36:21.554Z,96771.09
2022-11-02T02:38:59.274Z,96775.50
2022-11-02T02:41:36.671Z,96768.59
2022-11-02T02:44:06.490Z,96760.03
2022-11-02T02:46:56.261Z,96766.44
2022-11-02T02:49:34.293Z,96762.19
2022-11-02T02:52:03.362Z,96756.81
2022-11-02T02:54:39.741Z,96757.47
2022-11-02T02:57:17.315Z,96757.69
2022-11-02T02:59:46.061Z,96754.41
2022-11-02T03:02:19.017Z,96743.72
2022-11-02T03:04:45.485Z,96740.84
2022-11-02T03:07:17.254Z,96740.00
2022-11-02T03:10:02.177Z,96737.88
2022-11-02T03:12:59.640Z,96731.78
2022-11-02T03:15:35.292Z,96730.41
2022-11-02T03:18:15.061Z,96730.38
2022-11-02T03:21:03.831Z,96740.59
2022-11-02T03:23:35.638Z,96746.56
2022-11-02T03:26:17.918Z,96737.03
2022-11-02T03:29:10.610Z,96744.50
2022-11-02T03:31:41.622Z,96737.50
2022-11-02T03:34:27.151Z,96732.44
2022-11-02T03:37:19.472Z,96734.41
2022-11-02T03:39:52.830Z,96749.72
2022-11-02T03:42:23.105Z,96746.13
2022-11-02T03:45:04.182Z,96752.84
2022-11-02T03:47:35.237Z,96748.38
2022-11-02T03:50:04.606Z,96760.06
2022-11-02T03:52:35.286Z,96768.13
2022-11-02T03:55:11.367Z,96757.06
2022-11-02T03:57:45.053Z,96759.19
2022-11-02T04:00:15.190Z,96760.34
2022-11-02T04:02:45.802Z,96765.94
2022-11-02T04:05:12.190Z,96769.31
2022-11-02T04:08:01.267Z,96761.25
2022-11-02T04:10:27.668Z,96763.38
2022-11-02T04:13:13.189Z,96764.19
2022-11-02T04:15:39.577Z,96766.78
2022-11-02T04:18:24.780Z,96774.53
2022-11-02T04:20:51.694Z,96775.81
2022-11-02T04:23:38.376Z,96770.50
2022-11-02T04:26:05.661Z,96775.50
2022-11-02T04:28:31.965Z,96781.41
2022-11-02T04:31:02.299Z,96791.56
2022-11-02T04:33:35.491Z,96785.72
2022-11-02T04:36:07.342Z,96782.59
2022-11-02T04:38:43.533Z,96779.75
2022-11-02T04:41:31.575Z,96783.63
2022-11-02T04:43:58.692Z,96773.56
2022-11-02T04:46:27.461Z,96782.94
2022-11-02T04:48:54.297Z,96782.94
2022-11-02T04:51:22.642Z,96782.66
2022-11-02T04:53:49.947Z,96777.09
2022-11-02T04:56:16.373Z,96777.59
2022-11-02T04:58:43.069Z,96775.22
2022-11-02T05:01:14.071Z,96777.50
2022-11-02T05:03:40.870Z,96782.28
2022-11-02T05:06:07.909Z,96782.75
2022-11-02T05:08:35.657Z,96781.84
2022-11-02T05:11:02.527Z,96779.47
2022-11-02T05:13:29.745Z,96784.53
2022-11-02T05:15:57.265Z,96779.56
2022-11-02T05:18:24.791Z,96780.09
2022-11-02T05:20:53.156Z,96790.91
2022-11-02T05:23:20.230Z,96788.72
2022-11-02T05:25:56.810Z,96789.09
2022-11-02T05:28:24.203Z,96793.41
2022-11-02T05:30:50.722Z,96795.13
2022-11-02T05:33:17.919Z,96796.25
2022-11-02T05:35:44.458Z,96794.81
2022-11-02T05:38:10.876Z,96798.56
2022-11-02T05:40:41.110Z,96801.28
2022-11-02T05:43:09.061Z,96801.44
2022-11-02T05:45:36.197Z,96796.34
2022-11-02T05:48:06.930Z,96805.88
2022-11-02T05:50:33.349Z,96802.13
2022-11-02T05:52:59.657Z,96806.22
2022-11-02T05:55:26.460Z,96803.97
2022-11-02T05:57:54.222Z,96802.53
2022-11-02T06:00:22.190Z,96806.44
2022-11-02T06:02:49.853Z,96807.28
2022-11-02T06:05:16.283Z,96803.59
2022-11-02T06:07:42.671Z,96801.66
2022-11-02T06:10:09.497Z,96805.56
2022-11-02T06:12:35.828Z,96798.97
2022-11-02T06:15:02.158Z,96819.59
2022-11-02T06:17:28.891Z,96819.69
2022-11-02T06:19:55.237Z,96813.53
2022-11-02T06:22:21.590Z,96822.28
2022-11-02T06:24:48.449Z,96817.03
2022-11-02T06:27:14.829Z,96828.59
2022-11-02T06:29:41.518Z,96827.78
2022-11-02T06:32:07.864Z,96839.03
2022-11-02T06:34:34.209Z,96839.22
2022-11-02T06:37:01.009Z,96840.81
2022-11-02T06:39:27.877Z,96835.97
2022-11-02T06:41:54.238Z,96839.69
2022-11-02T06:44:21.000Z,96839.75
2022-11-02T06:46:47.706Z,96839.69
2022-11-02T06:49:14.006Z,96844.75
2022-11-02T06:51:40.314Z,96843.41
2022-11-02T06:54:08.873Z,96853.50
2022-11-02T06:56:35.336Z,96859.91
2022-11-02T06:59:01.761Z,96861.69
2022-11-02T07:01:28.644Z,96865.50
2022-11-02T07:03:55.809Z,96864.84
2022-11-02T07:06:22.149Z,96875.31
2022-11-02T07:08:48.462Z,96863.31
2022-11-02T07:11:18.832Z,96873.03
2022-11-02T07:13:45.209Z,96879.81
2022-11-02T07:16:11.588Z,96887.66
2022-11-02T07:18:38.391Z,96881.63
2022-11-02T07:21:04.792Z,96891.97
2022-11-02T07:23:31.763Z,96900.16
2022-11-02T07:25:58.106Z,96894.63
2022-11-02T07:28:24.401Z,96897.63
2022-11-02T07:30:54.161Z,96898.56
2022-11-02T07:33:20.801Z,96894.75
2022-11-02T07:35:47.220Z,96909.25
2022-11-02T07:38:14.555Z,96900.72
2022-11-02T07:40:40.900Z,96897.13
2022-11-02T07:43:08.581Z,96900.19
2022-11-02T07:45:35.190Z,96898.66
2022-11-02T07:48:01.978Z,96904.78
2022-11-02T07:50:28.458Z,96905.78
2022-11-02T07:52:57.202Z,96899.47
2022-11-02T07:55:26.810Z,96901.13
2022-11-02T07:57:58.208Z,96899.06
2022-11-02T08:00:26.521Z,96895.97
2022-11-02T08:02:57.654Z,96900.88
2022-11-02T08:05:25.006Z,96892.44
2022-11-02T08:08:03.160Z,96899.28
2022-11-02T08:10:35.389Z,96903.19
2022-11-02T08:13:07.293Z,96901.47
2022-11-02T08:15:34.057Z,96910.28
2022-11-02T08:18:30.454Z,96908.94
2022-11-02T08:20:58.808Z,96913.47
2022-11-02T08:23:26.217Z,96919.66
2022-11-02T08:25:53.781Z,96923.81
2022-11-02T08:28:32.579Z,96918.75
2022-11-02T08:30:59.389Z,96909.72
2022-11-02T08:33:25.745Z,96905.69
2022-11-02T08:35:53.928Z,96903.53
2022-11-02T08:38:23.189Z,96908.47
2022-11-02T08:40:49.720Z,96906.91
2022-11-02T08:43:16.774Z,96908.66
2022-11-02T08:48:32.308Z,96903.53
2022-11-02T08:50:58.741Z,96906.25
2022-11-02T08:53:25.121Z,96914.38
2022-11-02T08:55:51.941Z,96912.78
2022-11-02T08:58:18.436Z,96917.06
2022-11-02T09:00:44.992Z,96912.94
2022-11-02T09:03:13.719Z,96917.47
2022-11-02T09:05:45.039Z,96923.00
2022-11-02T09:08:15.310Z,96935.28
2022-11-02T09:10:41.748Z,96923.63
2022-11-02T09:13:11.980Z,96917.06
2022-11-02T09:15:39.156Z,96917.09
2022-11-02T09:18:07.893Z,96922.38
2022-11-02T09:20:35.559Z,96925.25
2022-11-02T09:23:02.004Z,96926.47
2022-11-02T09:25:28.747Z,96923.22
2022-11-02T09:27:57.316Z,96920.75
2022-11-02T09:30:25.917Z,96926.09
2022-11-02T09:33:00.928Z,96925.22
2022-11-02T09:35:30.607Z,96918.88
2022-11-02T09:37:57.314Z,96932.19
2022-11-02T09:40:26.161Z,96927.25
2022-11-02T09:42:54.661Z,96928.53
2022-11-02T09:45:21.969Z,96942.06
2022-11-02T09:48:16.106Z,96942.25
2022-11-02T09:50:57.727Z,96930.53
2022-11-02T09:53:39.854Z,96936.91
2022-11-02T09:56:07.501Z,96937.94
2022-11-02T09:58:38.529Z,96947.94
2022-11-02T10:01:19.302Z,96944.50
2022-11-02T10:04:25.811Z,96948.38
2022-11-02T10:07:01.327Z,96946.41
2022-11-02T10:09:36.945Z,96955.38
2022-11-02T10:12:13.164Z,96956.38
2022-11-02T10:14:49.517Z,96951.91
2022-11-02T10:17:25.362Z,96950.06
2022-11-02T10:20:02.452Z,96953.78
2022-11-02T10:22:41.032Z,96950.06
2022-11-02T10:25:08.283Z,96945.69
2022-11-02T10:27:38.437Z,96941.31
2022-11-02T10:30:10.929Z,96945.19
2022-11-02T10:32:39.803Z,96944.00
2022-11-02T10:35:36.711Z,96944.44
2022-11-02T10:38:49.722Z,96944.56
2022-11-02T10:41:44.714Z,96937.78
2022-11-02T10:44:48.540Z,96933.84
2022-11-02T10:47:19.005Z,96932.78
2022-11-02T10:49:54.295Z,96941.13
2022-11-02T10:52:21.508Z,96931.50
2022-11-02T10:54:51.439Z,96930.06
2022-11-02T10:57:25.038Z,96926.66
2022-11-02T11:00:25.587Z,96929.13
2022-11-02T11:03:14.802Z,96929.63
2022-11-02T11:06:04.318Z,96925.75
2022-11-02T11:08:34.550Z,96919.78
2022-11-02T11:11:17.767Z,96919.00
2022-11-02T11:16:42.344Z,96914.22
2022-11-02T11:19:40.756Z,96919.38
2022-11-02T11:22:27.453Z,96911.47
2022-11-02T11:25:14.696Z,96913.09
2022-11-02T11:27:48.921Z,96915.56
2022-11-02T11:33:20.004Z,96909.47
2022-11-02T11:35:49.348Z,96907.25
2022-11-02T11:38:22.982Z,96903.88
2022-11-02T11:40:54.975Z,96898.16
2022-11-02T11:43:25.876Z,96901.94
2022-11-02T11:46:05.244Z,96894.94
2022-11-02T11:48:56.195Z,96897.91
2022-11-02T11:51:36.038Z,96896.84
2022-11-02T11:54:23.559Z,96898.38
2022-11-02T11:56:52.440Z,96890.38
2022-11-02T11:59:39.435Z,96891.59
2022-11-02T12:02:44.313Z,96899.75
2022-11-02T12:05:15.089Z,96894.69
2022-11-02T12:08:13.413Z,96904.66
2022-11-02T12:11:01.722Z,96891.25
2022-11-02T12:13:43.445Z,96897.72
2022-11-02T12:16:11.780Z,96892.63
2022-11-02T12:18:50.188Z,96889.41
2022-11-02T12:21:27.593Z,96884.53
2022-11-02T12:24:00.210Z,96880.16
2022-11-02T12:26:37.398Z,96877.38
2022-11-02T12:29:22.416Z,96883.16
2022-11-02T12:32:08.419Z,96890.09
2022-11-02T12:35:28.391Z,96884.06
2022-11-02T12:37:59.356Z,96881.31
2022-11-02T12:41:05.154Z,96872.44
2022-11-02T12:43:46.506Z,96874.66
2022-11-02T12:46:38.828Z,96882.44
2022-11-02T12:49:19.755Z,96867.94
2022-11-02T12:51:58.818Z,96873.25
2022-11-02T12:54:40.637Z,96869.38
2022-11-02T12:57:14.364Z,96859.50
2022-11-02T12:59:44.345Z,96864.44
2022-11-02T13:02:24.431Z,96859.97
2022-11-02T13:05:01.966Z,96856.03
2022-11-02T13:07:41.319Z,96863.38
2022-11-02T13:10:17.205Z,96862.72
2022-11-02T13:12:46.621Z,96846.97
2022-11-02T13:15:18.733Z,96842.25
2022-11-02T13:17:50.500Z,96843.81
2022-11-02T13:20:33.933Z,96847.94
2022-11-02T13:23:13.056Z,96825.03
2022-11-02T13:25:45.155Z,96842.28
2022-11-02T13:28:17.284Z,96839.91
2022-11-02T13:30:46.080Z,96839.16
2022-11-02T13:33:30.830Z,96833.69
2022-11-02T13:35:57.888Z,96825.66
2022-11-02T13:38:44.352Z,96819.53
2022-11-02T13:41:42.976Z,96825.13
2022-11-02T13:44:43.175Z,96830.09
2022-11-02T13:47:44.671Z,96828.25
2022-11-02T13:50:16.454Z,96817.13
2022-11-02T13:52:55.517Z,96812.72
2022-11-02T13:55:25.972Z,96814.94
2022-11-02T13:57:59.478Z,96824.38
2022-11-02T14:00:27.224Z,96821.44
2022-11-02T14:03:08.365Z,96819.69
2022-11-02T14:05:44.455Z,96825.63
2022-11-02T14:08:19.917Z,96821.19
2022-11-02T14:11:04.469Z,96823.59
2022-11-02T14:13:55.629Z,96827.09
2022-11-02T14:16:45.521Z,96821.03
2022-11-02T14:19:19.528Z,96826.03
2022-11-02T14:21:50.102Z,96824.59
2022-11-02T14:24:34.924Z,96822.13
2022-11-02T14:27:24.491Z,96819.16
2022-11-02T14:29:53.476Z,96828.56
2022-11-02T14:32:28.253Z,96818.72
2022-11-02T14:35:15.934Z,96826.25
2022-11-02T14:38:19.255Z,96841.94
2022-11-02T14:41:00.458Z,96832.97
2022-11-02T14:43:58.072Z,96825.22
2022-11-02T14:46:57.816Z,96826.91
2022-11-02T14:49:30.927Z,96822.84
2022-11-02T14:52:12.178Z,96827.78
2022-11-02T14:54:48.366Z,96829.41
2022-11-02T14:57:25.995Z,96822.22
2022-11-02T14:59:57.075Z,96830.84
2022-11-02T15:02:43.044Z,96818.97
2022-11-02T15:05:22.801Z,96815.28
2022-11-02T15:07:52.288Z,96830.66
2022-11-02T15:10:18.549Z,96820.00
2022-11-02T15:12:47.919Z,96826.16
2022-11-02T15:15:37.309Z,96816.72
2022-11-02T15:18:24.506Z,96813.66
2022-11-02T15:21:12.759Z,96806.84
2022-11-02T15:26:29.567Z,96826.84
2022-11-02T15:29:00.601Z,96825.38
2022-11-02T15:31:28.229Z,96822.03
2022-11-02T15:34:00.521Z,96814.41
2022-11-02T15:36:35.213Z,96807.84
2022-11-02T15:39:10.828Z,96818.19
2022-11-02T15:41:43.278Z,96816.66
2022-11-02T15:44:37.760Z,96818.22
2022-11-02T15:47:28.303Z,96816.53
2022-11-02T15:50:04.746Z,96828.09
2022-11-02T15:56:19.540Z,96835.50
2022-11-02T15:59:17.261Z,96810.13
2022-11-02T16:01:43.870Z,96813.00
2022-11-02T16:04:19.774Z,96813.31
2022-11-02T16:06:46.465Z,96817.31
2022-11-02T16:09:35.095Z,96817.47
2022-11-02T16:12:19.050Z,96810.31
2022-11-02T16:14:53.273Z,96808.16
2022-11-02T16:17:26.101Z,96805.88
2022-11-02T16:19:53.181Z,96817.47
2022-11-02T16:22:24.873Z,96811.72
2022-11-02T16:24:53.205Z,96819.84
2022-11-02T16:27:21.466Z,96817.22
2022-11-02T16:29:49.542Z,96813.22
2022-11-02T16:32:16.973Z,96810.28
2022-11-02T16:34:44.160Z,96812.00
2022-11-02T16:37:15.302Z,96807.56
2022-11-02T16:39:46.340Z,96815.75
2022-11-02T16:42:17.620Z,96814.09
2022-11-02T16:44:54.819Z,96821.75
2022-11-02T16:47:29.894Z,96814.44
2022-11-02T16:49:58.711Z,96814.78
2022-11-02T16:52:36.459Z,96814.00
2022-11-02T16:55:22.999Z,96803.81
2022-11-02T16:57:49.981Z,96815.34
2022-11-02T17:00:19.383Z,96816.84
2022-11-02T17:02:47.197Z,96815.28
2022-11-02T17:05:20.441Z,96809.22
2022-11-02T17:08:10.334Z,96819.84
2022-11-02T17:10:38.817Z,96809.84
2022-11-02T17:13:18.644Z,96814.38
2022-11-02T17:15:49.654Z,96817.03
2022-11-02T17:18:27.129Z,96804.69
2022-11-02T17:21:12.060Z,96807.72
2022-11-02T17:23:44.446Z,96801.16
2022-11-02T17:26:25.780Z,96808.59
2022-11-02T17:28:55.054Z,96812.09
2022-11-02T17:31:23.888Z,96804.47
2022-11-02T17:33:51.096Z,96800.53
2022-11-02T17:36:17.781Z,96802.53
2022-11-02T17:38:44.351Z,96803.19
2022-11-02T17:41:36.272Z,96811.16
2022-11-02T17:44:03.450Z,96811.47
2022-11-02T17:46:30.238Z,96813.47
2022-11-02T17:48:58.184Z,96805.22
2022-11-02T17:51:25.573Z,96801.28
2022-11-02T17:53:52.123Z,96810.72
2022-11-02T17:56:19.164Z,96803.66
2022-11-02T17:58:45.524Z,96806.78
2022-11-02T18:01:13.106Z,96796.41
2022-11-02T18:03:39.958Z,96792.81
2022-11-02T18:06:06.701Z,96804.00
2022-11-02T18:08:53.193Z,96786.53
2022-11-02T18:11:24.918Z,96796.94
2022-11-02T18:13:52.481Z,96786.22
2022-11-02T18:16:19.288Z,96787.38
2022-11-02T18:18:45.673Z,96784.25
2022-11-02T18:21:12.600Z,96790.84
2022-11-02T18:23:41.253Z,96776.69
2022-11-02T18:26:10.934Z,96775.06
2022-11-02T18:28:37.480Z,96781.66
2022-11-02T18:31:08.637Z,96777.22
2022-11-02T18:33:35.156Z,96764.38
2022-11-02T18:36:04.028Z,96762.56
2022-11-02T18:38:30.357Z,96770.47
2022-11-02T18:40:56.695Z,96764.22
2022-11-02T18:43:23.396Z,96767.50
2022-11-02T18:45:49.706Z,96759.44
2022-11-02T18:48:16.057Z,96762.56
2022-11-02T18:50:42.926Z,96754.53
2022-11-02T18:53:09.864Z,96745.13
2022-11-02T18:55:39.439Z,96753.66
2022-11-02T18:58:06.674Z,96738.53
2022-11-02T19:00:33.275Z,96742.00
2022-11-02T19:02:59.569Z,96734.75
2022-11-02T19:05:52.748Z,96740.00
2022-11-02T19:08:37.375Z,96743.13
2022-11-02T19:11:04.231Z,96736.38
2022-11-02T19:13:30.534Z,96740.84
2022-11-02T19:15:56.955Z,96742.81
2022-11-02T19:18:23.706Z,96740.16
2022-11-02T19:20:50.022Z,96732.91
2022-11-02T19:23:16.379Z,96736.84
2022-11-02T19:25:50.438Z,96734.56
2022-11-02T19:28:16.790Z,96730.25
2022-11-02T19:30:43.111Z,96731.41
2022-11-02T19:33:09.852Z,96729.09
2022-11-02T19:35:36.157Z,96733.38
2022-11-02T19:38:02.456Z,96723.03
2022-11-02T19:40:29.307Z,96730.91
2022-11-02T19:42:56.073Z,96730.75
2022-11-02T19:45:22.853Z,96736.31
2022-11-02T19:47:50.082Z,96731.53
2022-11-02T19:50:16.477Z,96722.63
2022-11-02T19:52:43.258Z,96722.28
2022-11-02T19:55:09.706Z,96723.41
2022-11-02T19:57:36.076Z,96722.75
2022-11-02T20:00:03.896Z,96725.84
2022-11-02T20:02:30.254Z,96723.41
2022-11-02T20:04:56.571Z,96718.94
2022-11-02T20:07:23.277Z,96713.50
2022-11-02T20:09:51.630Z,96724.50
2022-11-02T20:12:19.725Z,96714.63
2022-11-02T20:14:46.577Z,96723.81
2022-11-02T20:19:59.639Z,96721.19
2022-11-02T20:22:26.024Z,96729.19
2022-11-02T20:24:52.338Z,96724.41
2022-11-02T20:27:18.853Z,96727.00
2022-11-02T20:29:46.277Z,96731.59
2022-11-02T20:32:12.632Z,96727.97
2022-11-02T20:34:39.689Z,96728.97
2022-11-02T20:37:07.821Z,96719.75
2022-11-02T20:39:34.148Z,96714.50
2022-11-02T20:42:00.509Z,96719.25
2022-11-02T20:44:27.283Z,96725.16
2022-11-02T20:46:53.882Z,96707.81
2022-11-02T20:49:36.339Z,96716.66
2022-11-02T20:52:08.250Z,96722.28
2022-11-02T20:54:34.616Z,96713.97
2022-11-02T20:57:00.982Z,96708.03
2022-11-02T20:59:27.893Z,96704.13
2022-11-02T21:01:54.299Z,96711.94
2022-11-02T21:04:21.857Z,96717.72
2022-11-02T21:06:50.185Z,96712.94
2022-11-02T21:09:17.295Z,96701.22
2022-11-02T21:12:02.692Z,96700.72
2022-11-02T21:14:28.936Z,96693.22
2022-11-02T21:16:55.416Z,96703.72
2022-11-02T21:19:22.159Z,96701.03
2022-11-02T21:21:48.481Z,96698.03
2022-11-02T21:24:14.800Z,96702.22
2022-11-02T21:26:41.486Z,96691.69
2022-11-02T21:29:09.268Z,96693.81
2022-11-02T21:31:35.706Z,96695.97
2022-11-02T21:34:02.484Z,96697.31
2022-11-02T21:36:28.837Z,96682.16
2022-11-02T21:38:55.819Z,96680.59
2022-11-02T21:41:29.190Z,96678.16
2022-11-02T21:43:55.878Z,96680.28
2022-11-02T21:46:24.365Z,96682.34
2022-11-02T21:48:51.592Z,96671.94
2022-11-02T21:51:19.769Z,96677.78
2022-11-02T21:53:47.559Z,96676.78
2022-11-02T21:56:19.561Z,96680.03
2022-11-02T21:58:47.385Z,96683.31
2022-11-02T22:01:39.480Z,96671.66
2022-11-02T22:04:07.480Z,96678.75
2022-11-02T22:06:34.737Z,96680.69
2022-11-02T22:09:02.327Z,96682.28
2022-11-02T22:11:28.777Z,96681.09
2022-11-02T22:13:57.959Z,96680.22
2022-11-02T22:16:29.991Z,96680.03
2022-11-02T22:19:04.298Z,96667.41
2022-11-02T22:21:32.802Z,96671.28
2022-11-02T22:23:59.772Z,96673.91
2022-11-02T22:26:27.970Z,96668.91
2022-11-02T22:28:57.409Z,96668.13
2022-11-02T22:31:35.312Z,96661.91
2022-11-02T22:34:03.796Z,96663.94
2022-11-02T22:36:32.667Z,96658.88
2022-11-02T22:39:00.538Z,96655.91
2022-11-02T22:41:30.192Z,96648.44
2022-11-02T22:43:59.006Z,96655.25
2022-11-02T22:46:26.910Z,96640.34
2022-11-02T22:48:55.752Z,96644.63
2022-11-02T22:51:24.018Z,96632.72
2022-11-02T22:53:50.488Z,96639.22
2022-11-02T22:56:19.181Z,96645.38
2022-11-02T22:58:46.860Z,96643.38
2022-11-02T23:01:20.303Z,96638.03
2022-11-02T23:03:47.895Z,96642.31
2022-11-02T23:06:15.305Z,96638.47
2022-11-02T23:08:47.247Z,96634.53
2022-11-02T23:11:21.958Z,96635.13
2022-11-02T23:13:59.218Z,96637.66
2022-11-02T23:16:27.959Z,96639.22
2022-11-02T23:19:31.035Z,96633.31
2022-11-02T23:22:19.277Z,96638.78
2022-11-02T23:25:05.934Z,96630.13
2022-11-02T23:27:34.258Z,96625.44
2022-11-02T23:30:19.570Z,96627.84
2022-11-02T23:32:45.858Z,96623.34
2022-11-02T23:35:31.273Z,96625.84
2022-11-02T23:38:05.585Z,96626.66
2022-11-02T23:40:33.019Z,96633.25
2022-11-02T23:42:59.452Z,96625.91
2022-11-02T23:45:25.786Z,96622.75
2022-11-02T23:48:00.750Z,96620.22
2022-11-02T23:50:48.523Z,96616.03
2022-11-02T23:53:36.280Z,96614.91
2022-11-02T23:56:22.373Z,96613.34
2022-11-02T23:59:06.717Z,96606.72
